Decoded Metar for RKPK (KIMHAE in KOREA) (IATA:PUS) | Meteo·Mobile Aviation Weather
aviador You're here:

RKPK Decoded Metar

KIMHAE in KOREA
Report Time2019-07-22 01:00:00
UTC Time2019-07-22 01:16:50
Flight Rules vfr VFR
Wind010° at 01 kt
W.Decomp.*RWY 36: 1.0 kt HW 0.3 kt RCW
Visibility9000 m
Phenomena:N/A
Clouds:N/A
Expected CloudBase > 2,000 ft AGL from Temp-Dew spread
CeilingNone
Temp28°C (ISA +13)
Dew Point23°C (74% RH)
Heat Index31.2°C
QNH1007 hPa
Density Alt2,126 ft
Elevation49 ft
Report Wrong Elevation
Raw Report
RKPK 220100Z 01001KT 9000 NSC 28/23 Q1007=

Extra information for RKPK:More info

Metar Taf Metar & Taf Last 4 Metars F.Rules Stats Wind Profile Meteogram Temp Stats Airport Information Weather charts Add Link Nearby VenuesMetar ALERT Operation Metar Decoded Social comments